Main page
Satellite images 10-day forecastsClimateMarine weather Cyclones Lightning AirportsFAQ Newsletter About
Weather : Europe Africa North America South America Asia Australia-Oceania Others
Languages Contact

Buenos Aires, Argentina

Aeroparque Jorge Newbery

latitude: 34-34S, longitude: 058-25W, elevation: 6 m


METAR: SABE 290300Z 09008KT CAVOK 15/10 Q1019
TAF: SABE 282300Z 2900/2924 07010KT CAVOK TX19/2918Z TN15/2909Z BECMG 2904/2906 02010KT BECMG 2915/2918 08005KT

Time: 00:54 (03:54 UTC)

Current weather observation

The report was made 54 minutes ago, at 03:00 UTC
Wind 8 kt from the East
Temperature 15°C
Humidity 72%
Pressure 1019 hPa
Visibility 10 km or more
no clouds below 1500 m and no cumulonimbus

Change units

Forecast

The report was made 4 hours and 54 minutes ago, at 23:00 UTC
Forecast valid from 29 at 00 UTC to 29 at 24 UTC
Wind 10 kt from the East/Northeast
Visibility 10 km or more
no clouds below 1500 m and no cumulonimbus
Becoming
from 29 at 04 UTC to 29 at 06 UTC
Wind 10 kt from the North/Northeast
Becoming
from 29 at 15 UTC to 29 at 18 UTC
Wind 5 kt from the East
The information on this site is subject to a disclaimer
Weather : Europe Africa North America South America Asia Australia-Oceania Others
Satellite images 10-day forecastsClimateMarine weather Cyclones Lightning AirportsFAQ Languages Contact Newsletter About